sensor_id;sensor_type;location;lat;lon;timestamp;P1;durP1;ratioP1;P2;durP2;ratioP2
14734;SDS011;7458;49.002;8.472;2023-07-09T00:01:54;941.50;;;661.67;;
14734;SDS011;7458;49.002;8.472;2023-07-09T00:04:20;935.13;;;663.20;;
14734;SDS011;7458;49.002;8.472;2023-07-09T00:06:47;905.83;;;645.03;;
14734;SDS011;7458;49.002;8.472;2023-07-09T00:09:20;860.22;;;400.70;;
14734;SDS011;7458;49.002;8.472;2023-07-09T00:11:46;828.28;;;400.73;;
14734;SDS011;7458;49.002;8.472;2023-07-09T00:14:14;820.60;;;398.17;;
14734;SDS011;7458;49.002;8.472;2023-07-09T00:16:42;824.72;;;398.02;;
14734;SDS011;7458;49.002;8.472;2023-07-09T00:19:13;831.47;;;400.75;;
14734;SDS011;7458;49.002;8.472;2023-07-09T00:21:49;828.67;;;398.10;;
14734;SDS011;7458;49.002;8.472;2023-07-09T00:24:18;824.53;;;394.98;;
14734;SDS011;7458;49.002;8.472;2023-07-09T00:26:44;824.80;;;400.20;;
14734;SDS011;7458;49.002;8.472;2023-07-09T00:29:13;821.72;;;397.73;;
14734;SDS011;7458;49.002;8.472;2023-07-09T00:31:42;821.97;;;399.30;;
14734;SDS011;7458;49.002;8.472;2023-07-09T00:34:08;821.92;;;400.40;;
14734;SDS011;7458;49.002;8.472;2023-07-09T00:36:39;837.53;;;399.60;;
14734;SDS011;7458;49.002;8.472;2023-07-09T00:39:17;819.78;;;399.15;;
14734;SDS011;7458;49.002;8.472;2023-07-09T00:41:45;816.33;;;398.27;;
14734;SDS011;7458;49.002;8.472;2023-07-09T00:44:31;811.75;;;401.65;;
14734;SDS011;7458;49.002;8.472;2023-07-09T00:49:28;922.25;;;636.13;;
14734;SDS011;7458;49.002;8.472;2023-07-09T00:52:00;993.03;;;788.30;;
14734;SDS011;7458;49.002;8.472;2023-07-09T00:55:00;983.38;;;748.38;;
14734;SDS011;7458;49.002;8.472;2023-07-09T01:00:05;983.67;;;749.95;;
14734;SDS011;7458;49.002;8.472;2023-07-09T01:02:38;1003.17;;;828.53;;
14734;SDS011;7458;49.002;8.472;2023-07-09T01:05:11;992.95;;;789.80;;
14734;SDS011;7458;49.002;8.472;2023-07-09T01:07:41;988.50;;;768.13;;
14734;SDS011;7458;49.002;8.472;2023-07-09T01:10:11;979.72;;;721.65;;
14734;SDS011;7458;49.002;8.472;2023-07-09T01:12:42;962.33;;;705.00;;
14734;SDS011;7458;49.002;8.472;2023-07-09T01:15:11;964.10;;;677.42;;
14734;SDS011;7458;49.002;8.472;2023-07-09T01:17:37;931.47;;;654.70;;
14734;SDS011;7458;49.002;8.472;2023-07-09T01:20:03;916.70;;;629.42;;
14734;SDS011;7458;49.002;8.472;2023-07-09T01:22:34;932.28;;;650.22;;
14734;SDS011;7458;49.002;8.472;2023-07-09T01:25:03;886.13;;;617.63;;
14734;SDS011;7458;49.002;8.472;2023-07-09T01:27:37;903.65;;;635.00;;
14734;SDS011;7458;49.002;8.472;2023-07-09T01:30:12;893.08;;;613.90;;
14734;SDS011;7458;49.002;8.472;2023-07-09T01:32:47;905.78;;;628.20;;
14734;SDS011;7458;49.002;8.472;2023-07-09T01:35:20;931.45;;;650.85;;
14734;SDS011;7458;49.002;8.472;2023-07-09T01:37:47;933.08;;;644.20;;
14734;SDS011;7458;49.002;8.472;2023-07-09T01:40:15;929.28;;;643.00;;
14734;SDS011;7458;49.002;8.472;2023-07-09T01:42:44;910.05;;;632.17;;
14734;SDS011;7458;49.002;8.472;2023-07-09T01:45:11;883.30;;;614.22;;
14734;SDS011;7458;49.002;8.472;2023-07-09T01:47:38;906.00;;;404.13;;
14734;SDS011;7458;49.002;8.472;2023-07-09T01:50:05;905.00;;;401.27;;
14734;SDS011;7458;49.002;8.472;2023-07-09T01:52:33;908.35;;;407.27;;
14734;SDS011;7458;49.002;8.472;2023-07-09T01:54:59;906.38;;;404.33;;
14734;SDS011;7458;49.002;8.472;2023-07-09T01:57:26;905.55;;;407.08;;
14734;SDS011;7458;49.002;8.472;2023-07-09T02:00:01;902.42;;;402.33;;
14734;SDS011;7458;49.002;8.472;2023-07-09T02:02:34;904.00;;;403.83;;
14734;SDS011;7458;49.002;8.472;2023-07-09T02:05:01;904.05;;;403.70;;
14734;SDS011;7458;49.002;8.472;2023-07-09T02:07:27;908.08;;;407.73;;
14734;SDS011;7458;49.002;8.472;2023-07-09T02:09:53;907.42;;;407.58;;
14734;SDS011;7458;49.002;8.472;2023-07-09T02:12:19;906.70;;;405.30;;
14734;SDS011;7458;49.002;8.472;2023-07-09T02:14:45;905.65;;;403.35;;
14734;SDS011;7458;49.002;8.472;2023-07-09T02:17:13;908.10;;;407.98;;
14734;SDS011;7458;49.002;8.472;2023-07-09T02:19:40;907.92;;;406.95;;
14734;SDS011;7458;49.002;8.472;2023-07-09T02:22:06;910.53;;;411.10;;
14734;SDS011;7458;49.002;8.472;2023-07-09T02:24:33;907.55;;;401.65;;
14734;SDS011;7458;49.002;8.472;2023-07-09T02:27:00;907.90;;;404.40;;
14734;SDS011;7458;49.002;8.472;2023-07-09T02:29:30;908.15;;;405.20;;
14734;SDS011;7458;49.002;8.472;2023-07-09T02:31:57;909.85;;;407.20;;
14734;SDS011;7458;49.002;8.472;2023-07-09T02:34:25;910.35;;;409.35;;
14734;SDS011;7458;49.002;8.472;2023-07-09T02:36:53;909.97;;;407.65;;
14734;SDS011;7458;49.002;8.472;2023-07-09T02:39:21;907.15;;;406.23;;
14734;SDS011;7458;49.002;8.472;2023-07-09T02:41:49;907.67;;;405.00;;
14734;SDS011;7458;49.002;8.472;2023-07-09T02:44:15;903.83;;;403.80;;
14734;SDS011;7458;49.002;8.472;2023-07-09T02:46:42;903.42;;;405.73;;
14734;SDS011;7458;49.002;8.472;2023-07-09T02:49:09;907.08;;;405.45;;
14734;SDS011;7458;49.002;8.472;2023-07-09T02:51:38;909.65;;;407.17;;
14734;SDS011;7458;49.002;8.472;2023-07-09T02:54:04;905.25;;;405.25;;
14734;SDS011;7458;49.002;8.472;2023-07-09T02:56:30;908.03;;;403.23;;
14734;SDS011;7458;49.002;8.472;2023-07-09T02:58:56;905.47;;;404.38;;
14734;SDS011;7458;49.002;8.472;2023-07-09T03:01:23;909.03;;;408.10;;
14734;SDS011;7458;49.002;8.472;2023-07-09T03:03:52;905.45;;;405.13;;
14734;SDS011;7458;49.002;8.472;2023-07-09T03:06:23;904.63;;;407.25;;
14734;SDS011;7458;49.002;8.472;2023-07-09T03:08:50;902.80;;;404.38;;
14734;SDS011;7458;49.002;8.472;2023-07-09T03:11:16;903.38;;;403.67;;
14734;SDS011;7458;49.002;8.472;2023-07-09T03:13:43;900.83;;;398.27;;
14734;SDS011;7458;49.002;8.472;2023-07-09T03:16:10;901.00;;;401.75;;
14734;SDS011;7458;49.002;8.472;2023-07-09T03:18:36;901.63;;;403.60;;
14734;SDS011;7458;49.002;8.472;2023-07-09T03:21:02;903.88;;;404.05;;
14734;SDS011;7458;49.002;8.472;2023-07-09T03:23:29;902.88;;;401.98;;
14734;SDS011;7458;49.002;8.472;2023-07-09T03:25:55;911.20;;;407.50;;
14734;SDS011;7458;49.002;8.472;2023-07-09T03:28:22;915.78;;;413.77;;
14734;SDS011;7458;49.002;8.472;2023-07-09T03:30:49;900.28;;;420.88;;
14734;SDS011;7458;49.002;8.472;2023-07-09T03:33:19;925.55;;;555.08;;
14734;SDS011;7458;49.002;8.472;2023-07-09T03:35:45;951.03;;;698.42;;
14734;SDS011;7458;49.002;8.472;2023-07-09T03:38:11;1002.08;;;824.47;;
14734;SDS011;7458;49.002;8.472;2023-07-09T03:40:37;1023.22;;;882.72;;
14734;SDS011;7458;49.002;8.472;2023-07-09T03:43:04;1007.60;;;848.50;;
14734;SDS011;7458;49.002;8.472;2023-07-09T03:45:31;976.17;;;724.63;;
14734;SDS011;7458;49.002;8.472;2023-07-09T03:47:59;979.47;;;736.05;;
14734;SDS011;7458;49.002;8.472;2023-07-09T03:50:25;986.22;;;765.10;;
14734;SDS011;7458;49.002;8.472;2023-07-09T03:52:51;973.33;;;731.08;;
14734;SDS011;7458;49.002;8.472;2023-07-09T03:55:18;978.97;;;735.47;;
14734;SDS011;7458;49.002;8.472;2023-07-09T03:57:44;972.83;;;721.40;;
14734;SDS011;7458;49.002;8.472;2023-07-09T04:00:10;976.92;;;745.08;;
14734;SDS011;7458;49.002;8.472;2023-07-09T04:02:37;981.50;;;770.67;;
14734;SDS011;7458;49.002;8.472;2023-07-09T04:05:04;992.85;;;864.95;;
14734;SDS011;7458;49.002;8.472;2023-07-09T04:07:31;1007.85;;;856.47;;
14734;SDS011;7458;49.002;8.472;2023-07-09T04:09:57;1007.35;;;848.78;;
14734;SDS011;7458;49.002;8.472;2023-07-09T04:12:23;1015.35;;;867.03;;
14734;SDS011;7458;49.002;8.472;2023-07-09T04:14:48;1013.97;;;862.25;;
14734;SDS011;7458;49.002;8.472;2023-07-09T04:17:14;1027.70;;;912.10;;
14734;SDS011;7458;49.002;8.472;2023-07-09T04:19:40;1015.33;;;869.50;;
14734;SDS011;7458;49.002;8.472;2023-07-09T04:22:05;1028.28;;;911.83;;
14734;SDS011;7458;49.002;8.472;2023-07-09T04:24:31;1013.53;;;868.30;;
14734;SDS011;7458;49.002;8.472;2023-07-09T04:26:58;1028.10;;;913.70;;
14734;SDS011;7458;49.002;8.472;2023-07-09T04:29:28;1022.50;;;886.80;;
14734;SDS011;7458;49.002;8.472;2023-07-09T04:31:55;1036.97;;;922.25;;
14734;SDS011;7458;49.002;8.472;2023-07-09T04:34:21;1021.25;;;879.38;;
14734;SDS011;7458;49.002;8.472;2023-07-09T04:36:47;1026.40;;;886.92;;
14734;SDS011;7458;49.002;8.472;2023-07-09T04:39:13;1044.50;;;929.25;;
14734;SDS011;7458;49.002;8.472;2023-07-09T04:41:40;1055.65;;;939.97;;
14734;SDS011;7458;49.002;8.472;2023-07-09T04:44:05;1039.93;;;901.65;;
14734;SDS011;7458;49.002;8.472;2023-07-09T04:46:31;1037.85;;;902.90;;
14734;SDS011;7458;49.002;8.472;2023-07-09T04:48:57;1048.07;;;933.00;;
14734;SDS011;7458;49.002;8.472;2023-07-09T04:51:23;1038.47;;;923.53;;
14734;SDS011;7458;49.002;8.472;2023-07-09T04:53:49;1078.00;;;838.72;;
14734;SDS011;7458;49.002;8.472;2023-07-09T04:56:16;1099.10;;;820.15;;
14734;SDS011;7458;49.002;8.472;2023-07-09T04:58:43;1125.28;;;827.80;;
14734;SDS011;7458;49.002;8.472;2023-07-09T05:01:08;1132.28;;;817.80;;
14734;SDS011;7458;49.002;8.472;2023-07-09T05:03:34;1144.38;;;792.78;;
14734;SDS011;7458;49.002;8.472;2023-07-09T05:06:00;1107.68;;;884.30;;
14734;SDS011;7458;49.002;8.472;2023-07-09T05:08:26;1119.55;;;887.10;;
14734;SDS011;7458;49.002;8.472;2023-07-09T05:10:52;1122.20;;;885.50;;
14734;SDS011;7458;49.002;8.472;2023-07-09T05:13:18;1172.43;;;786.65;;
14734;SDS011;7458;49.002;8.472;2023-07-09T05:15:46;1098.35;;;890.08;;
14734;SDS011;7458;49.002;8.472;2023-07-09T05:18:13;1179.68;;;783.20;;
14734;SDS011;7458;49.002;8.472;2023-07-09T05:20:40;1097.22;;;858.70;;
14734;SDS011;7458;49.002;8.472;2023-07-09T05:23:07;1162.82;;;789.38;;
14734;SDS011;7458;49.002;8.472;2023-07-09T05:25:35;1181.05;;;786.45;;
14734;SDS011;7458;49.002;8.472;2023-07-09T05:28:01;1127.13;;;883.70;;
14734;SDS011;7458;49.002;8.472;2023-07-09T05:30:28;1112.78;;;876.88;;
14734;SDS011;7458;49.002;8.472;2023-07-09T05:32:54;1113.68;;;866.92;;
14734;SDS011;7458;49.002;8.472;2023-07-09T05:35:22;1176.40;;;782.53;;
14734;SDS011;7458;49.002;8.472;2023-07-09T05:37:52;1103.65;;;868.42;;
14734;SDS011;7458;49.002;8.472;2023-07-09T05:40:19;1143.10;;;784.05;;
14734;SDS011;7458;49.002;8.472;2023-07-09T05:42:47;1141.55;;;804.22;;
14734;SDS011;7458;49.002;8.472;2023-07-09T05:45:14;1138.45;;;797.88;;
14734;SDS011;7458;49.002;8.472;2023-07-09T05:47:41;1085.05;;;871.83;;
14734;SDS011;7458;49.002;8.472;2023-07-09T05:50:06;1080.38;;;867.83;;
14734;SDS011;7458;49.002;8.472;2023-07-09T05:52:33;1136.10;;;811.75;;
14734;SDS011;7458;49.002;8.472;2023-07-09T05:54:59;1061.00;;;868.42;;
14734;SDS011;7458;49.002;8.472;2023-07-09T05:57:25;1121.40;;;802.03;;
14734;SDS011;7458;49.002;8.472;2023-07-09T05:59:51;1090.30;;;878.85;;
14734;SDS011;7458;49.002;8.472;2023-07-09T06:02:18;1084.00;;;875.38;;
14734;SDS011;7458;49.002;8.472;2023-07-09T06:04:47;1105.45;;;829.35;;
14734;SDS011;7458;49.002;8.472;2023-07-09T06:07:16;1066.60;;;866.60;;
14734;SDS011;7458;49.002;8.472;2023-07-09T06:09:43;1073.90;;;868.58;;
14734;SDS011;7458;49.002;8.472;2023-07-09T06:12:10;1069.30;;;872.28;;
14734;SDS011;7458;49.002;8.472;2023-07-09T06:14:38;1068.50;;;877.08;;
14734;SDS011;7458;49.002;8.472;2023-07-09T06:17:03;1069.28;;;883.65;;
14734;SDS011;7458;49.002;8.472;2023-07-09T06:19:30;1111.07;;;830.25;;
14734;SDS011;7458;49.002;8.472;2023-07-09T06:21:55;1085.45;;;860.80;;
14734;SDS011;7458;49.002;8.472;2023-07-09T06:24:21;1095.63;;;859.13;;
14734;SDS011;7458;49.002;8.472;2023-07-09T06:26:47;1080.32;;;872.47;;
14734;SDS011;7458;49.002;8.472;2023-07-09T06:29:13;1084.38;;;968.97;;
14734;SDS011;7458;49.002;8.472;2023-07-09T06:31:39;1079.88;;;903.83;;
14734;SDS011;7458;49.002;8.472;2023-07-09T06:34:07;1095.55;;;979.92;;
14734;SDS011;7458;49.002;8.472;2023-07-09T06:36:34;1102.05;;;891.47;;
14734;SDS011;7458;49.002;8.472;2023-07-09T06:39:01;1097.05;;;906.15;;
14734;SDS011;7458;49.002;8.472;2023-07-09T06:41:27;1132.57;;;999.90;;
14734;SDS011;7458;49.002;8.472;2023-07-09T06:43:54;1099.00;;;915.92;;
14734;SDS011;7458;49.002;8.472;2023-07-09T06:46:20;1160.35;;;999.90;;
14734;SDS011;7458;49.002;8.472;2023-07-09T06:48:46;1164.05;;;999.90;;
14734;SDS011;7458;49.002;8.472;2023-07-09T06:51:12;1169.65;;;999.90;;
14734;SDS011;7458;49.002;8.472;2023-07-09T06:53:38;1198.82;;;999.90;;
14734;SDS011;7458;49.002;8.472;2023-07-09T06:56:04;1190.07;;;999.90;;
14734;SDS011;7458;49.002;8.472;2023-07-09T06:58:31;1100.80;;;982.50;;
14734;SDS011;7458;49.002;8.472;2023-07-09T07:01:00;1105.13;;;987.17;;
14734;SDS011;7458;49.002;8.472;2023-07-09T07:03:28;1215.82;;;999.90;;
14734;SDS011;7458;49.002;8.472;2023-07-09T07:05:57;1119.80;;;999.90;;
14734;SDS011;7458;49.002;8.472;2023-07-09T07:08:24;1198.20;;;930.78;;
14734;SDS011;7458;49.002;8.472;2023-07-09T07:10:57;1185.85;;;976.95;;
14734;SDS011;7458;49.002;8.472;2023-07-09T07:13:31;1246.05;;;999.90;;
14734;SDS011;7458;49.002;8.472;2023-07-09T07:16:03;1143.40;;;981.30;;
14734;SDS011;7458;49.002;8.472;2023-07-09T07:18:35;1142.80;;;999.90;;
14734;SDS011;7458;49.002;8.472;2023-07-09T07:21:10;1139.82;;;999.90;;
14734;SDS011;7458;49.002;8.472;2023-07-09T07:23:36;1289.53;;;999.90;;
14734;SDS011;7458;49.002;8.472;2023-07-09T07:26:02;1287.30;;;999.90;;
14734;SDS011;7458;49.002;8.472;2023-07-09T07:28:29;1187.75;;;999.90;;
14734;SDS011;7458;49.002;8.472;2023-07-09T07:30:59;1218.68;;;999.90;;
14734;SDS011;7458;49.002;8.472;2023-07-09T07:33:30;1299.10;;;999.90;;
14734;SDS011;7458;49.002;8.472;2023-07-09T07:35:56;1215.40;;;999.90;;
14734;SDS011;7458;49.002;8.472;2023-07-09T07:38:22;1242.43;;;999.90;;
14734;SDS011;7458;49.002;8.472;2023-07-09T07:40:48;1259.78;;;999.90;;
14734;SDS011;7458;49.002;8.472;2023-07-09T07:43:13;1296.40;;;999.90;;
14734;SDS011;7458;49.002;8.472;2023-07-09T07:45:40;1271.55;;;999.90;;
14734;SDS011;7458;49.002;8.472;2023-07-09T07:48:07;1289.45;;;999.90;;
14734;SDS011;7458;49.002;8.472;2023-07-09T07:50:33;1275.53;;;999.90;;
14734;SDS011;7458;49.002;8.472;2023-07-09T07:52:59;1225.63;;;999.90;;
14734;SDS011;7458;49.002;8.472;2023-07-09T07:55:24;1315.93;;;999.90;;
14734;SDS011;7458;49.002;8.472;2023-07-09T07:57:50;1300.18;;;999.90;;
14734;SDS011;7458;49.002;8.472;2023-07-09T08:00:19;1228.90;;;999.90;;
14734;SDS011;7458;49.002;8.472;2023-07-09T08:02:45;1264.70;;;999.90;;
14734;SDS011;7458;49.002;8.472;2023-07-09T08:05:17;1252.80;;;999.90;;
14734;SDS011;7458;49.002;8.472;2023-07-09T08:07:43;1302.93;;;999.90;;
14734;SDS011;7458;49.002;8.472;2023-07-09T08:10:08;1203.05;;;999.90;;
14734;SDS011;7458;49.002;8.472;2023-07-09T08:12:35;1260.18;;;999.90;;
14734;SDS011;7458;49.002;8.472;2023-07-09T08:15:00;1214.35;;;999.90;;
14734;SDS011;7458;49.002;8.472;2023-07-09T08:17:26;1281.22;;;999.90;;
14734;SDS011;7458;49.002;8.472;2023-07-09T08:19:52;1244.45;;;999.90;;
14734;SDS011;7458;49.002;8.472;2023-07-09T08:22:21;1177.28;;;999.90;;
14734;SDS011;7458;49.002;8.472;2023-07-09T08:24:47;1259.55;;;999.90;;
14734;SDS011;7458;49.002;8.472;2023-07-09T08:27:15;1204.55;;;999.90;;
14734;SDS011;7458;49.002;8.472;2023-07-09T08:29:41;1207.28;;;999.90;;
14734;SDS011;7458;49.002;8.472;2023-07-09T08:32:07;1380.30;;;999.90;;
14734;SDS011;7458;49.002;8.472;2023-07-09T08:34:35;1220.93;;;999.90;;
14734;SDS011;7458;49.002;8.472;2023-07-09T08:37:06;1213.45;;;999.90;;
14734;SDS011;7458;49.002;8.472;2023-07-09T08:39:33;1295.63;;;999.90;;
14734;SDS011;7458;49.002;8.472;2023-07-09T08:42:02;1307.97;;;999.90;;
14734;SDS011;7458;49.002;8.472;2023-07-09T08:47:57;1152.70;;;904.67;;
14734;SDS011;7458;49.002;8.472;2023-07-09T08:50:45;1200.10;;;999.90;;
14734;SDS011;7458;49.002;8.472;2023-07-09T08:56:01;1214.30;;;999.90;;
14734;SDS011;7458;49.002;8.472;2023-07-09T08:58:29;1117.90;;;997.42;;
14734;SDS011;7458;49.002;8.472;2023-07-09T09:00:59;1100.43;;;979.42;;
14734;SDS011;7458;49.002;8.472;2023-07-09T09:06:13;1094.00;;;972.33;;
14734;SDS011;7458;49.002;8.472;2023-07-09T09:11:45;1214.20;;;999.90;;
14734;SDS011;7458;49.002;8.472;2023-07-09T09:17:00;1198.15;;;999.90;;
14734;SDS011;7458;49.002;8.472;2023-07-09T09:22:09;1205.57;;;999.90;;
14734;SDS011;7458;49.002;8.472;2023-07-09T09:27:52;1198.32;;;999.90;;
14734;SDS011;7458;49.002;8.472;2023-07-09T09:30:19;1094.05;;;976.28;;
14734;SDS011;7458;49.002;8.472;2023-07-09T09:32:50;1175.40;;;888.70;;
14734;SDS011;7458;49.002;8.472;2023-07-09T09:37:55;1129.40;;;999.90;;
14734;SDS011;7458;49.002;8.472;2023-07-09T09:40:23;1149.10;;;892.00;;
14734;SDS011;7458;49.002;8.472;2023-07-09T09:42:55;1138.10;;;999.90;;
14734;SDS011;7458;49.002;8.472;2023-07-09T09:45:26;1146.32;;;999.90;;
14734;SDS011;7458;49.002;8.472;2023-07-09T09:50:56;1099.10;;;945.40;;
14734;SDS011;7458;49.002;8.472;2023-07-09T09:53:26;1130.05;;;999.90;;
14734;SDS011;7458;49.002;8.472;2023-07-09T09:55:59;1141.95;;;887.92;;
14734;SDS011;7458;49.002;8.472;2023-07-09T09:58:31;1144.85;;;999.90;;
14734;SDS011;7458;49.002;8.472;2023-07-09T10:00:58;1121.57;;;913.05;;
14734;SDS011;7458;49.002;8.472;2023-07-09T10:03:33;1099.82;;;941.67;;
14734;SDS011;7458;49.002;8.472;2023-07-09T10:06:06;1094.90;;;976.15;;
14734;SDS011;7458;49.002;8.472;2023-07-09T10:11:46;1202.03;;;999.90;;
14734;SDS011;7458;49.002;8.472;2023-07-09T10:14:26;1099.28;;;982.15;;
14734;SDS011;7458;49.002;8.472;2023-07-09T10:22:35;1122.22;;;999.90;;
14734;SDS011;7458;49.002;8.472;2023-07-09T10:25:23;1118.20;;;999.13;;
14734;SDS011;7458;49.002;8.472;2023-07-09T10:34:34;1194.15;;;999.90;;
14734;SDS011;7458;49.002;8.472;2023-07-09T10:40:17;1209.78;;;999.90;;
14734;SDS011;7458;49.002;8.472;2023-07-09T10:43:20;1206.50;;;999.90;;
14734;SDS011;7458;49.002;8.472;2023-07-09T10:45:56;1117.00;;;999.35;;
14734;SDS011;7458;49.002;8.472;2023-07-09T10:52:11;1199.72;;;999.90;;
14734;SDS011;7458;49.002;8.472;2023-07-09T10:54:29;1089.30;;;964.53;;
14734;SDS011;7458;49.002;8.472;2023-07-09T10:57:41;1186.70;;;999.90;;
14734;SDS011;7458;49.002;8.472;2023-07-09T11:00:11;1198.82;;;999.90;;
14734;SDS011;7458;49.002;8.472;2023-07-09T11:02:44;1111.90;;;993.63;;
14734;SDS011;7458;49.002;8.472;2023-07-09T11:05:16;1101.35;;;980.72;;
14734;SDS011;7458;49.002;8.472;2023-07-09T11:07:45;1103.60;;;942.88;;
14734;SDS011;7458;49.002;8.472;2023-07-09T11:10:44;1265.28;;;999.90;;
14734;SDS011;7458;49.002;8.472;2023-07-09T11:13:19;1199.72;;;999.90;;
14734;SDS011;7458;49.002;8.472;2023-07-09T11:16:01;1188.88;;;999.90;;
14734;SDS011;7458;49.002;8.472;2023-07-09T11:18:31;1217.10;;;999.90;;
14734;SDS011;7458;49.002;8.472;2023-07-09T11:21:01;1213.60;;;999.90;;
14734;SDS011;7458;49.002;8.472;2023-07-09T11:23:52;1104.35;;;985.55;;
14734;SDS011;7458;49.002;8.472;2023-07-09T11:31:35;1096.63;;;977.78;;
14734;SDS011;7458;49.002;8.472;2023-07-09T11:36:52;1136.70;;;999.90;;
14734;SDS011;7458;49.002;8.472;2023-07-09T11:39:28;1211.28;;;999.90;;
14734;SDS011;7458;49.002;8.472;2023-07-09T11:42:24;1136.47;;;999.90;;
14734;SDS011;7458;49.002;8.472;2023-07-09T11:45:11;1192.78;;;999.90;;
14734;SDS011;7458;49.002;8.472;2023-07-09T11:47:41;1184.43;;;999.90;;
14734;SDS011;7458;49.002;8.472;2023-07-09T11:50:39;1192.53;;;999.90;;
14734;SDS011;7458;49.002;8.472;2023-07-09T11:56:07;1171.65;;;999.90;;
14734;SDS011;7458;49.002;8.472;2023-07-09T11:58:34;1180.25;;;999.90;;
14734;SDS011;7458;49.002;8.472;2023-07-09T12:01:01;1195.20;;;999.90;;
14734;SDS011;7458;49.002;8.472;2023-07-09T12:03:32;1187.45;;;999.90;;
14734;SDS011;7458;49.002;8.472;2023-07-09T12:06:16;1180.32;;;999.90;;
14734;SDS011;7458;49.002;8.472;2023-07-09T12:08:48;1219.65;;;999.90;;
14734;SDS011;7458;49.002;8.472;2023-07-09T12:14:00;1179.05;;;999.90;;
14734;SDS011;7458;49.002;8.472;2023-07-09T12:16:29;1204.65;;;999.90;;
14734;SDS011;7458;49.002;8.472;2023-07-09T12:19:00;1198.45;;;999.90;;
14734;SDS011;7458;49.002;8.472;2023-07-09T12:21:26;1174.65;;;999.90;;
14734;SDS011;7458;49.002;8.472;2023-07-09T12:23:52;1207.72;;;999.90;;
14734;SDS011;7458;49.002;8.472;2023-07-09T12:26:23;1179.18;;;999.90;;
14734;SDS011;7458;49.002;8.472;2023-07-09T12:28:52;1194.60;;;999.90;;
14734;SDS011;7458;49.002;8.472;2023-07-09T12:31:30;1133.32;;;999.90;;
14734;SDS011;7458;49.002;8.472;2023-07-09T12:33:56;1167.07;;;999.90;;
14734;SDS011;7458;49.002;8.472;2023-07-09T12:36:27;1157.75;;;999.90;;
14734;SDS011;7458;49.002;8.472;2023-07-09T12:38:55;1170.75;;;999.90;;
14734;SDS011;7458;49.002;8.472;2023-07-09T12:41:40;1200.53;;;999.90;;
14734;SDS011;7458;49.002;8.472;2023-07-09T12:44:18;1162.97;;;999.90;;
14734;SDS011;7458;49.002;8.472;2023-07-09T12:46:47;1178.53;;;999.90;;
14734;SDS011;7458;49.002;8.472;2023-07-09T12:49:23;1178.38;;;999.90;;
14734;SDS011;7458;49.002;8.472;2023-07-09T12:51:58;1169.15;;;999.90;;
14734;SDS011;7458;49.002;8.472;2023-07-09T12:54:28;1159.40;;;999.90;;
14734;SDS011;7458;49.002;8.472;2023-07-09T12:56:56;1169.05;;;999.90;;
14734;SDS011;7458;49.002;8.472;2023-07-09T12:59:25;1127.68;;;999.90;;
14734;SDS011;7458;49.002;8.472;2023-07-09T13:02:14;1190.00;;;999.90;;
14734;SDS011;7458;49.002;8.472;2023-07-09T13:04:49;1195.22;;;999.90;;
14734;SDS011;7458;49.002;8.472;2023-07-09T13:10:19;1101.43;;;987.05;;
14734;SDS011;7458;49.002;8.472;2023-07-09T13:12:52;1123.95;;;999.90;;
14734;SDS011;7458;49.002;8.472;2023-07-09T13:18:09;1131.05;;;999.90;;
14734;SDS011;7458;49.002;8.472;2023-07-09T13:20:38;1159.53;;;999.90;;
14734;SDS011;7458;49.002;8.472;2023-07-09T13:23:14;1070.25;;;953.53;;
14734;SDS011;7458;49.002;8.472;2023-07-09T13:25:46;1173.82;;;999.90;;
14734;SDS011;7458;49.002;8.472;2023-07-09T13:28:19;1281.75;;;999.90;;
14734;SDS011;7458;49.002;8.472;2023-07-09T13:30:52;1114.57;;;869.10;;
14734;SDS011;7458;49.002;8.472;2023-07-09T13:34:04;1068.25;;;951.47;;
14734;SDS011;7458;49.002;8.472;2023-07-09T13:36:41;1079.22;;;965.92;;
14734;SDS011;7458;49.002;8.472;2023-07-09T13:39:09;1095.43;;;983.25;;
14734;SDS011;7458;49.002;8.472;2023-07-09T13:41:37;1167.55;;;999.90;;
14734;SDS011;7458;49.002;8.472;2023-07-09T13:44:08;1101.30;;;900.88;;
14734;SDS011;7458;49.002;8.472;2023-07-09T13:46:45;1135.03;;;880.92;;
14734;SDS011;7458;49.002;8.472;2023-07-09T13:49:15;1073.05;;;955.67;;
14734;SDS011;7458;49.002;8.472;2023-07-09T13:51:43;1083.55;;;970.63;;
14734;SDS011;7458;49.002;8.472;2023-07-09T13:54:14;1080.95;;;968.95;;
14734;SDS011;7458;49.002;8.472;2023-07-09T13:56:44;1142.22;;;999.90;;
14734;SDS011;7458;49.002;8.472;2023-07-09T13:59:13;1082.57;;;944.15;;
14734;SDS011;7458;49.002;8.472;2023-07-09T14:01:52;1085.45;;;943.65;;
14734;SDS011;7458;49.002;8.472;2023-07-09T14:04:21;1187.25;;;999.90;;
14734;SDS011;7458;49.002;8.472;2023-07-09T14:06:49;1172.25;;;999.90;;
14734;SDS011;7458;49.002;8.472;2023-07-09T14:09:15;1081.88;;;970.15;;
14734;SDS011;7458;49.002;8.472;2023-07-09T14:11:43;1082.63;;;967.20;;
14734;SDS011;7458;49.002;8.472;2023-07-09T14:14:21;1166.88;;;999.90;;
14734;SDS011;7458;49.002;8.472;2023-07-09T14:16:49;1172.25;;;999.90;;
14734;SDS011;7458;49.002;8.472;2023-07-09T14:19:18;1157.20;;;999.90;;
14734;SDS011;7458;49.002;8.472;2023-07-09T14:21:47;1090.82;;;977.70;;
14734;SDS011;7458;49.002;8.472;2023-07-09T14:26:49;1182.28;;;999.90;;
14734;SDS011;7458;49.002;8.472;2023-07-09T14:29:16;1178.97;;;999.90;;
14734;SDS011;7458;49.002;8.472;2023-07-09T14:31:46;1090.40;;;977.00;;
14734;SDS011;7458;49.002;8.472;2023-07-09T14:34:23;1182.10;;;999.90;;
14734;SDS011;7458;49.002;8.472;2023-07-09T14:36:54;1175.45;;;999.90;;
14734;SDS011;7458;49.002;8.472;2023-07-09T14:39:22;1172.68;;;999.90;;
14734;SDS011;7458;49.002;8.472;2023-07-09T14:41:50;1101.85;;;987.67;;
14734;SDS011;7458;49.002;8.472;2023-07-09T14:44:24;1162.28;;;999.90;;
14734;SDS011;7458;49.002;8.472;2023-07-09T14:46:52;1163.45;;;999.90;;
14734;SDS011;7458;49.002;8.472;2023-07-09T14:49:20;1125.10;;;999.90;;
14734;SDS011;7458;49.002;8.472;2023-07-09T14:51:49;1172.97;;;999.90;;
14734;SDS011;7458;49.002;8.472;2023-07-09T14:54:23;1155.95;;;999.90;;
14734;SDS011;7458;49.002;8.472;2023-07-09T14:56:53;1106.97;;;991.35;;
14734;SDS011;7458;49.002;8.472;2023-07-09T14:59:21;1111.80;;;995.80;;
14734;SDS011;7458;49.002;8.472;2023-07-09T15:01:48;1177.68;;;999.90;;
14734;SDS011;7458;49.002;8.472;2023-07-09T15:04:29;1178.95;;;999.90;;
14734;SDS011;7458;49.002;8.472;2023-07-09T15:06:58;1180.25;;;999.90;;
14734;SDS011;7458;49.002;8.472;2023-07-09T15:09:26;1122.63;;;999.90;;
14734;SDS011;7458;49.002;8.472;2023-07-09T15:12:02;1168.90;;;999.90;;
14734;SDS011;7458;49.002;8.472;2023-07-09T15:14:28;1180.72;;;999.90;;
14734;SDS011;7458;49.002;8.472;2023-07-09T15:16:54;1182.63;;;999.90;;
14734;SDS011;7458;49.002;8.472;2023-07-09T15:19:21;1151.53;;;999.90;;
14734;SDS011;7458;49.002;8.472;2023-07-09T15:21:48;1152.43;;;999.90;;
14734;SDS011;7458;49.002;8.472;2023-07-09T15:24:29;1159.22;;;999.90;;
14734;SDS011;7458;49.002;8.472;2023-07-09T15:26:59;1176.75;;;999.90;;
14734;SDS011;7458;49.002;8.472;2023-07-09T15:29:26;1004.22;;;866.33;;
14734;SDS011;7458;49.002;8.472;2023-07-09T15:31:53;982.05;;;779.45;;